sensor_id;sensor_type;location;lat;lon;timestamp;temperature;humidity
14517;DHT22;7344;50.864;4.362;2022-11-20T00:00:56;3.90;99.90
14517;DHT22;7344;50.864;4.362;2022-11-20T00:03:22;4.00;99.90
14517;DHT22;7344;50.864;4.362;2022-11-20T00:05:48;4.00;99.90
14517;DHT22;7344;50.864;4.362;2022-11-20T00:08:14;3.80;99.90
14517;DHT22;7344;50.864;4.362;2022-11-20T00:10:43;3.80;99.90
14517;DHT22;7344;50.864;4.362;2022-11-20T00:13:08;3.70;99.90
14517;DHT22;7344;50.864;4.362;2022-11-20T00:15:37;3.80;99.90
14517;DHT22;7344;50.864;4.362;2022-11-20T00:18:02;3.80;99.90
14517;DHT22;7344;50.864;4.362;2022-11-20T00:20:28;3.90;99.90
14517;DHT22;7344;50.864;4.362;2022-11-20T00:22:53;4.00;99.90
14517;DHT22;7344;50.864;4.362;2022-11-20T00:25:19;3.90;99.90
14517;DHT22;7344;50.864;4.362;2022-11-20T00:27:45;4.00;99.90
14517;DHT22;7344;50.864;4.362;2022-11-20T00:30:10;4.00;99.90
14517;DHT22;7344;50.864;4.362;2022-11-20T00:32:38;4.00;99.90
14517;DHT22;7344;50.864;4.362;2022-11-20T00:35:04;3.90;99.90
14517;DHT22;7344;50.864;4.362;2022-11-20T00:37:32;4.00;99.90
14517;DHT22;7344;50.864;4.362;2022-11-20T00:39:58;4.10;99.90
14517;DHT22;7344;50.864;4.362;2022-11-20T00:42:25;4.30;99.90
14517;DHT22;7344;50.864;4.362;2022-11-20T00:44:50;4.20;99.90
14517;DHT22;7344;50.864;4.362;2022-11-20T00:47:16;4.00;99.90
14517;DHT22;7344;50.864;4.362;2022-11-20T00:49:42;4.00;99.90
14517;DHT22;7344;50.864;4.362;2022-11-20T00:52:07;4.10;99.90
14517;DHT22;7344;50.864;4.362;2022-11-20T00:54:33;4.10;99.90
14517;DHT22;7344;50.864;4.362;2022-11-20T00:57:01;4.20;99.90
14517;DHT22;7344;50.864;4.362;2022-11-20T00:59:27;4.10;99.90
14517;DHT22;7344;50.864;4.362;2022-11-20T01:01:52;4.20;99.90
14517;DHT22;7344;50.864;4.362;2022-11-20T01:04:18;4.10;99.90
14517;DHT22;7344;50.864;4.362;2022-11-20T01:06:44;4.20;99.90
14517;DHT22;7344;50.864;4.362;2022-11-20T01:09:13;4.20;99.90
14517;DHT22;7344;50.864;4.362;2022-11-20T01:11:44;4.40;99.90
14517;DHT22;7344;50.864;4.362;2022-11-20T01:14:13;4.40;99.90
14517;DHT22;7344;50.864;4.362;2022-11-20T01:16:50;4.50;99.90
14517;DHT22;7344;50.864;4.362;2022-11-20T01:19:18;4.40;99.90
14517;DHT22;7344;50.864;4.362;2022-11-20T01:21:46;4.40;99.90
14517;DHT22;7344;50.864;4.362;2022-11-20T01:24:14;4.50;99.90
14517;DHT22;7344;50.864;4.362;2022-11-20T01:26:42;4.50;99.90
14517;DHT22;7344;50.864;4.362;2022-11-20T01:29:13;4.40;99.90
14517;DHT22;7344;50.864;4.362;2022-11-20T01:31:39;4.30;99.90
14517;DHT22;7344;50.864;4.362;2022-11-20T01:34:07;4.40;99.90
14517;DHT22;7344;50.864;4.362;2022-11-20T01:36:34;4.40;99.90
14517;DHT22;7344;50.864;4.362;2022-11-20T01:39:12;4.30;99.90
14517;DHT22;7344;50.864;4.362;2022-11-20T01:41:38;4.30;99.90
14517;DHT22;7344;50.864;4.362;2022-11-20T01:47:20;4.20;99.90
14517;DHT22;7344;50.864;4.362;2022-11-20T01:50:03;4.30;99.90
14517;DHT22;7344;50.864;4.362;2022-11-20T01:52:49;4.30;99.90
14517;DHT22;7344;50.864;4.362;2022-11-20T01:55:29;4.20;99.90
14517;DHT22;7344;50.864;4.362;2022-11-20T01:57:56;4.30;99.90
14517;DHT22;7344;50.864;4.362;2022-11-20T02:00:22;4.40;99.90
14517;DHT22;7344;50.864;4.362;2022-11-20T02:02:59;4.50;99.90
14517;DHT22;7344;50.864;4.362;2022-11-20T02:05:34;4.60;99.90
14517;DHT22;7344;50.864;4.362;2022-11-20T02:08:02;4.80;99.90
14517;DHT22;7344;50.864;4.362;2022-11-20T02:10:34;4.70;99.90
14517;DHT22;7344;50.864;4.362;2022-11-20T02:13:00;4.60;99.90
14517;DHT22;7344;50.864;4.362;2022-11-20T02:15:44;4.60;99.90
14517;DHT22;7344;50.864;4.362;2022-11-20T02:18:14;4.50;99.90
14517;DHT22;7344;50.864;4.362;2022-11-20T02:20:46;4.40;99.90
14517;DHT22;7344;50.864;4.362;2022-11-20T02:25:55;4.50;99.90
14517;DHT22;7344;50.864;4.362;2022-11-20T02:28:21;4.60;99.90
14517;DHT22;7344;50.864;4.362;2022-11-20T02:30:47;4.70;99.90
14517;DHT22;7344;50.864;4.362;2022-11-20T02:33:12;4.70;99.90
14517;DHT22;7344;50.864;4.362;2022-11-20T02:35:46;4.60;99.90
14517;DHT22;7344;50.864;4.362;2022-11-20T02:38:13;4.50;99.90
14517;DHT22;7344;50.864;4.362;2022-11-20T02:40:40;4.40;99.90
14517;DHT22;7344;50.864;4.362;2022-11-20T02:43:08;4.50;99.90
14517;DHT22;7344;50.864;4.362;2022-11-20T02:45:38;4.40;99.90
14517;DHT22;7344;50.864;4.362;2022-11-20T02:48:05;4.40;99.90
14517;DHT22;7344;50.864;4.362;2022-11-20T02:50:30;4.40;99.90
14517;DHT22;7344;50.864;4.362;2022-11-20T02:52:56;4.40;99.90
14517;DHT22;7344;50.864;4.362;2022-11-20T02:55:22;4.40;99.90
14517;DHT22;7344;50.864;4.362;2022-11-20T02:57:47;4.50;99.90
14517;DHT22;7344;50.864;4.362;2022-11-20T03:00:13;4.50;99.90
14517;DHT22;7344;50.864;4.362;2022-11-20T03:02:39;4.60;99.90
14517;DHT22;7344;50.864;4.362;2022-11-20T03:05:05;4.60;99.90
14517;DHT22;7344;50.864;4.362;2022-11-20T03:07:30;4.50;99.90
14517;DHT22;7344;50.864;4.362;2022-11-20T03:09:59;4.40;99.90
14517;DHT22;7344;50.864;4.362;2022-11-20T03:12:27;4.30;99.90
14517;DHT22;7344;50.864;4.362;2022-11-20T03:14:53;4.30;99.90
14517;DHT22;7344;50.864;4.362;2022-11-20T03:17:18;4.40;99.90
14517;DHT22;7344;50.864;4.362;2022-11-20T03:19:44;4.50;99.90
14517;DHT22;7344;50.864;4.362;2022-11-20T03:22:10;4.40;99.90
14517;DHT22;7344;50.864;4.362;2022-11-20T03:24:35;4.40;99.90
14517;DHT22;7344;50.864;4.362;2022-11-20T03:27:01;4.40;99.90
14517;DHT22;7344;50.864;4.362;2022-11-20T03:29:26;4.40;99.90
14517;DHT22;7344;50.864;4.362;2022-11-20T03:31:52;4.50;99.90
14517;DHT22;7344;50.864;4.362;2022-11-20T03:34:18;4.50;99.90
14517;DHT22;7344;50.864;4.362;2022-11-20T03:36:44;4.30;99.90
14517;DHT22;7344;50.864;4.362;2022-11-20T03:39:10;4.40;99.90
14517;DHT22;7344;50.864;4.362;2022-11-20T03:41:37;4.50;99.90
14517;DHT22;7344;50.864;4.362;2022-11-20T03:44:06;4.60;99.90
14517;DHT22;7344;50.864;4.362;2022-11-20T03:46:32;4.70;99.90
14517;DHT22;7344;50.864;4.362;2022-11-20T03:49:01;4.70;99.90
14517;DHT22;7344;50.864;4.362;2022-11-20T03:51:34;4.70;99.90
14517;DHT22;7344;50.864;4.362;2022-11-20T03:54:01;4.90;99.90
14517;DHT22;7344;50.864;4.362;2022-11-20T03:56:30;4.80;99.90
14517;DHT22;7344;50.864;4.362;2022-11-20T03:58:56;4.80;99.90
14517;DHT22;7344;50.864;4.362;2022-11-20T04:01:25;4.90;99.90
14517;DHT22;7344;50.864;4.362;2022-11-20T04:03:55;5.00;99.90
14517;DHT22;7344;50.864;4.362;2022-11-20T04:06:29;5.10;99.90
14517;DHT22;7344;50.864;4.362;2022-11-20T04:08:56;5.00;99.90
14517;DHT22;7344;50.864;4.362;2022-11-20T04:11:24;5.10;99.90
14517;DHT22;7344;50.864;4.362;2022-11-20T04:13:55;5.10;99.90
14517;DHT22;7344;50.864;4.362;2022-11-20T04:16:22;5.10;99.90
14517;DHT22;7344;50.864;4.362;2022-11-20T04:18:54;5.20;99.90
14517;DHT22;7344;50.864;4.362;2022-11-20T04:21:21;5.10;99.90
14517;DHT22;7344;50.864;4.362;2022-11-20T04:23:47;5.10;99.90
14517;DHT22;7344;50.864;4.362;2022-11-20T04:26:12;5.20;99.90
14517;DHT22;7344;50.864;4.362;2022-11-20T04:28:39;5.30;99.90
14517;DHT22;7344;50.864;4.362;2022-11-20T04:31:16;5.40;99.90
14517;DHT22;7344;50.864;4.362;2022-11-20T04:33:45;5.40;99.90
14517;DHT22;7344;50.864;4.362;2022-11-20T04:36:19;5.40;99.90
14517;DHT22;7344;50.864;4.362;2022-11-20T04:38:45;5.40;99.90
14517;DHT22;7344;50.864;4.362;2022-11-20T04:41:18;5.30;99.90
14517;DHT22;7344;50.864;4.362;2022-11-20T04:43:52;5.20;99.90
14517;DHT22;7344;50.864;4.362;2022-11-20T04:46:25;5.20;99.90
14517;DHT22;7344;50.864;4.362;2022-11-20T04:48:51;5.20;99.90
14517;DHT22;7344;50.864;4.362;2022-11-20T04:51:16;5.20;99.90
14517;DHT22;7344;50.864;4.362;2022-11-20T04:53:42;5.30;99.90
14517;DHT22;7344;50.864;4.362;2022-11-20T04:56:10;5.40;99.90
14517;DHT22;7344;50.864;4.362;2022-11-20T04:58:37;5.40;99.90
14517;DHT22;7344;50.864;4.362;2022-11-20T05:01:14;5.50;99.90
14517;DHT22;7344;50.864;4.362;2022-11-20T05:03:40;5.40;99.90
14517;DHT22;7344;50.864;4.362;2022-11-20T05:06:07;5.50;99.90
14517;DHT22;7344;50.864;4.362;2022-11-20T05:08:35;5.60;99.90
14517;DHT22;7344;50.864;4.362;2022-11-20T05:11:09;5.50;99.90
14517;DHT22;7344;50.864;4.362;2022-11-20T05:13:35;5.60;99.90
14517;DHT22;7344;50.864;4.362;2022-11-20T05:16:09;5.60;99.90
14517;DHT22;7344;50.864;4.362;2022-11-20T05:18:35;5.60;99.90
14517;DHT22;7344;50.864;4.362;2022-11-20T05:21:02;5.60;99.90
14517;DHT22;7344;50.864;4.362;2022-11-20T05:23:29;5.60;99.90
14517;DHT22;7344;50.864;4.362;2022-11-20T05:26:01;5.50;99.90
14517;DHT22;7344;50.864;4.362;2022-11-20T05:28:28;5.70;99.90
14517;DHT22;7344;50.864;4.362;2022-11-20T05:30:54;5.70;99.90
14517;DHT22;7344;50.864;4.362;2022-11-20T05:33:20;5.60;99.90
14517;DHT22;7344;50.864;4.362;2022-11-20T05:35:49;5.70;99.90
14517;DHT22;7344;50.864;4.362;2022-11-20T05:38:15;5.70;99.90
14517;DHT22;7344;50.864;4.362;2022-11-20T05:40:43;5.80;99.90
14517;DHT22;7344;50.864;4.362;2022-11-20T05:43:09;5.90;99.90
14517;DHT22;7344;50.864;4.362;2022-11-20T05:45:35;6.00;99.90
14517;DHT22;7344;50.864;4.362;2022-11-20T05:48:04;6.10;99.90
14517;DHT22;7344;50.864;4.362;2022-11-20T05:50:29;6.00;99.90
14517;DHT22;7344;50.864;4.362;2022-11-20T05:52:58;6.00;99.90
14517;DHT22;7344;50.864;4.362;2022-11-20T05:55:24;6.00;99.90
14517;DHT22;7344;50.864;4.362;2022-11-20T05:57:52;6.00;99.90
14517;DHT22;7344;50.864;4.362;2022-11-20T06:00:18;6.00;99.90
14517;DHT22;7344;50.864;4.362;2022-11-20T06:02:44;6.00;99.90
14517;DHT22;7344;50.864;4.362;2022-11-20T06:05:10;5.90;99.90
14517;DHT22;7344;50.864;4.362;2022-11-20T06:07:35;5.90;99.90
14517;DHT22;7344;50.864;4.362;2022-11-20T06:10:02;5.90;99.90
14517;DHT22;7344;50.864;4.362;2022-11-20T06:12:27;5.90;99.90
14517;DHT22;7344;50.864;4.362;2022-11-20T06:14:53;5.80;99.90
14517;DHT22;7344;50.864;4.362;2022-11-20T06:17:18;5.90;99.90
14517;DHT22;7344;50.864;4.362;2022-11-20T06:19:44;5.90;99.90
14517;DHT22;7344;50.864;4.362;2022-11-20T06:22:10;5.90;99.90
14517;DHT22;7344;50.864;4.362;2022-11-20T06:24:36;5.80;99.90
14517;DHT22;7344;50.864;4.362;2022-11-20T06:27:02;5.80;99.90
14517;DHT22;7344;50.864;4.362;2022-11-20T06:29:27;5.80;99.90
14517;DHT22;7344;50.864;4.362;2022-11-20T06:31:54;5.80;99.90
14517;DHT22;7344;50.864;4.362;2022-11-20T06:34:19;5.80;99.90
14517;DHT22;7344;50.864;4.362;2022-11-20T06:36:45;5.80;99.90
14517;DHT22;7344;50.864;4.362;2022-11-20T06:39:11;5.90;99.90
14517;DHT22;7344;50.864;4.362;2022-11-20T06:41:36;5.80;99.90
14517;DHT22;7344;50.864;4.362;2022-11-20T06:44:04;5.90;99.90
14517;DHT22;7344;50.864;4.362;2022-11-20T06:46:30;6.00;99.90
14517;DHT22;7344;50.864;4.362;2022-11-20T06:48:56;6.00;99.90
14517;DHT22;7344;50.864;4.362;2022-11-20T06:51:26;6.10;99.90
14517;DHT22;7344;50.864;4.362;2022-11-20T06:53:51;6.10;99.90
14517;DHT22;7344;50.864;4.362;2022-11-20T06:56:18;6.00;99.90
14517;DHT22;7344;50.864;4.362;2022-11-20T06:58:43;6.00;99.90
14517;DHT22;7344;50.864;4.362;2022-11-20T07:01:11;6.00;99.90
14517;DHT22;7344;50.864;4.362;2022-11-20T07:03:41;6.00;99.90
14517;DHT22;7344;50.864;4.362;2022-11-20T07:06:07;5.90;99.90
14517;DHT22;7344;50.864;4.362;2022-11-20T07:08:33;6.00;99.90
14517;DHT22;7344;50.864;4.362;2022-11-20T07:11:04;6.10;99.90
14517;DHT22;7344;50.864;4.362;2022-11-20T07:13:30;6.30;99.90
14517;DHT22;7344;50.864;4.362;2022-11-20T07:16:04;6.30;99.90
14517;DHT22;7344;50.864;4.362;2022-11-20T07:18:30;6.30;99.90
14517;DHT22;7344;50.864;4.362;2022-11-20T07:20:59;6.40;99.90
14517;DHT22;7344;50.864;4.362;2022-11-20T07:23:25;6.30;99.90
14517;DHT22;7344;50.864;4.362;2022-11-20T07:25:50;6.40;99.90
14517;DHT22;7344;50.864;4.362;2022-11-20T07:28:16;6.40;99.90
14517;DHT22;7344;50.864;4.362;2022-11-20T07:30:42;6.40;99.90
14517;DHT22;7344;50.864;4.362;2022-11-20T07:33:10;6.50;99.90
14517;DHT22;7344;50.864;4.362;2022-11-20T07:35:36;6.60;99.90
14517;DHT22;7344;50.864;4.362;2022-11-20T07:38:01;6.50;99.90
14517;DHT22;7344;50.864;4.362;2022-11-20T07:40:27;6.60;99.90
14517;DHT22;7344;50.864;4.362;2022-11-20T07:42:54;6.60;99.90
14517;DHT22;7344;50.864;4.362;2022-11-20T07:45:22;6.70;99.90
14517;DHT22;7344;50.864;4.362;2022-11-20T07:47:48;6.70;99.90
14517;DHT22;7344;50.864;4.362;2022-11-20T07:50:14;6.90;99.90
14517;DHT22;7344;50.864;4.362;2022-11-20T07:52:43;6.90;99.90
14517;DHT22;7344;50.864;4.362;2022-11-20T07:55:10;6.90;99.90
14517;DHT22;7344;50.864;4.362;2022-11-20T07:57:36;6.90;99.90
14517;DHT22;7344;50.864;4.362;2022-11-20T08:00:05;6.90;99.90
14517;DHT22;7344;50.864;4.362;2022-11-20T08:02:32;6.90;99.90
14517;DHT22;7344;50.864;4.362;2022-11-20T08:04:58;6.80;99.90
14517;DHT22;7344;50.864;4.362;2022-11-20T08:07:23;6.70;99.90
14517;DHT22;7344;50.864;4.362;2022-11-20T08:09:52;6.70;99.90
14517;DHT22;7344;50.864;4.362;2022-11-20T08:12:23;6.70;99.90
14517;DHT22;7344;50.864;4.362;2022-11-20T08:15:08;6.70;99.90
14517;DHT22;7344;50.864;4.362;2022-11-20T08:17:33;6.80;99.90
14517;DHT22;7344;50.864;4.362;2022-11-20T08:20:02;6.80;99.90
14517;DHT22;7344;50.864;4.362;2022-11-20T08:22:28;6.90;99.90
14517;DHT22;7344;50.864;4.362;2022-11-20T08:24:54;7.00;99.90
14517;DHT22;7344;50.864;4.362;2022-11-20T08:27:19;7.00;99.90
14517;DHT22;7344;50.864;4.362;2022-11-20T08:29:45;7.10;99.90
14517;DHT22;7344;50.864;4.362;2022-11-20T08:32:11;7.20;99.90
14517;DHT22;7344;50.864;4.362;2022-11-20T08:34:36;7.30;99.90
14517;DHT22;7344;50.864;4.362;2022-11-20T08:37:02;7.30;99.90
14517;DHT22;7344;50.864;4.362;2022-11-20T08:39:28;7.40;99.90
14517;DHT22;7344;50.864;4.362;2022-11-20T08:41:56;7.50;99.90
14517;DHT22;7344;50.864;4.362;2022-11-20T08:44:22;7.50;99.90
14517;DHT22;7344;50.864;4.362;2022-11-20T08:46:47;7.50;99.90
14517;DHT22;7344;50.864;4.362;2022-11-20T08:49:17;7.50;99.90
14517;DHT22;7344;50.864;4.362;2022-11-20T08:51:43;7.50;99.90
14517;DHT22;7344;50.864;4.362;2022-11-20T08:54:09;7.50;99.90
14517;DHT22;7344;50.864;4.362;2022-11-20T08:56:37;7.60;99.90
14517;DHT22;7344;50.864;4.362;2022-11-20T08:59:03;7.70;99.90
14517;DHT22;7344;50.864;4.362;2022-11-20T09:01:28;7.80;99.90
14517;DHT22;7344;50.864;4.362;2022-11-20T09:03:57;7.80;99.90
14517;DHT22;7344;50.864;4.362;2022-11-20T09:06:24;7.90;99.90
14517;DHT22;7344;50.864;4.362;2022-11-20T09:08:53;7.90;99.90
14517;DHT22;7344;50.864;4.362;2022-11-20T09:11:19;8.00;99.90
14517;DHT22;7344;50.864;4.362;2022-11-20T09:13:48;8.10;99.90
14517;DHT22;7344;50.864;4.362;2022-11-20T09:16:13;8.10;99.90
14517;DHT22;7344;50.864;4.362;2022-11-20T09:18:39;8.20;99.90
14517;DHT22;7344;50.864;4.362;2022-11-20T09:21:10;8.20;99.90
14517;DHT22;7344;50.864;4.362;2022-11-20T09:23:37;8.20;99.90
14517;DHT22;7344;50.864;4.362;2022-11-20T09:26:21;8.20;99.90
14517;DHT22;7344;50.864;4.362;2022-11-20T09:28:47;8.20;99.90
14517;DHT22;7344;50.864;4.362;2022-11-20T09:31:22;8.30;99.90
14517;DHT22;7344;50.864;4.362;2022-11-20T09:33:48;8.40;99.90
14517;DHT22;7344;50.864;4.362;2022-11-20T09:36:13;8.50;99.90
14517;DHT22;7344;50.864;4.362;2022-11-20T09:38:39;8.60;99.90
14517;DHT22;7344;50.864;4.362;2022-11-20T09:41:06;8.70;99.90
14517;DHT22;7344;50.864;4.362;2022-11-20T09:54:17;9.00;99.90
14517;DHT22;7344;50.864;4.362;2022-11-20T09:57:02;9.10;99.90
14517;DHT22;7344;50.864;4.362;2022-11-20T09:59:48;9.10;99.90
14517;DHT22;7344;50.864;4.362;2022-11-20T10:04:53;9.30;99.90
14517;DHT22;7344;50.864;4.362;2022-11-20T10:07:30;9.30;99.90
14517;DHT22;7344;50.864;4.362;2022-11-20T10:09:56;9.40;99.90
14517;DHT22;7344;50.864;4.362;2022-11-20T10:12:25;9.40;99.90
14517;DHT22;7344;50.864;4.362;2022-11-20T10:24:06;9.60;99.90
14517;DHT22;7344;50.864;4.362;2022-11-20T10:29:38;9.60;99.90
14517;DHT22;7344;50.864;4.362;2022-11-20T10:32:11;9.60;99.90
14517;DHT22;7344;50.864;4.362;2022-11-20T10:35:01;9.80;99.90
14517;DHT22;7344;50.864;4.362;2022-11-20T10:37:31;10.00;99.90
14517;DHT22;7344;50.864;4.362;2022-11-20T10:40:29;10.20;99.90
14517;DHT22;7344;50.864;4.362;2022-11-20T10:42:59;10.50;99.90
14517;DHT22;7344;50.864;4.362;2022-11-20T10:48:04;10.60;99.90
14517;DHT22;7344;50.864;4.362;2022-11-20T10:50:36;10.60;99.90
14517;DHT22;7344;50.864;4.362;2022-11-20T10:53:16;10.60;99.90
14517;DHT22;7344;50.864;4.362;2022-11-20T10:56:00;10.50;99.90
14517;DHT22;7344;50.864;4.362;2022-11-20T11:01:24;10.70;99.90
14517;DHT22;7344;50.864;4.362;2022-11-20T11:03:52;10.70;99.90
14517;DHT22;7344;50.864;4.362;2022-11-20T11:09:09;10.60;99.90
14517;DHT22;7344;50.864;4.362;2022-11-20T11:11:38;10.50;99.90
14517;DHT22;7344;50.864;4.362;2022-11-20T11:14:10;10.60;99.90
14517;DHT22;7344;50.864;4.362;2022-11-20T11:16:40;10.60;99.90
14517;DHT22;7344;50.864;4.362;2022-11-20T11:19:11;10.60;99.90
14517;DHT22;7344;50.864;4.362;2022-11-20T11:21:54;10.50;99.90
14517;DHT22;7344;50.864;4.362;2022-11-20T11:24:22;10.60;99.90
14517;DHT22;7344;50.864;4.362;2022-11-20T11:27:12;10.60;99.90
14517;DHT22;7344;50.864;4.362;2022-11-20T11:29:38;10.60;99.90
14517;DHT22;7344;50.864;4.362;2022-11-20T11:32:06;10.40;99.90
14517;DHT22;7344;50.864;4.362;2022-11-20T11:34:32;10.40;99.90
14517;DHT22;7344;50.864;4.362;2022-11-20T11:36:59;10.50;99.90
14517;DHT22;7344;50.864;4.362;2022-11-20T11:39:27;10.50;99.90
14517;DHT22;7344;50.864;4.362;2022-11-20T11:41:58;10.40;99.90
14517;DHT22;7344;50.864;4.362;2022-11-20T11:44:34;10.30;99.90
14517;DHT22;7344;50.864;4.362;2022-11-20T11:47:25;10.30;99.90
14517;DHT22;7344;50.864;4.362;2022-11-20T11:55:36;10.30;99.90
14517;DHT22;7344;50.864;4.362;2022-11-20T12:01:07;10.20;99.90
14517;DHT22;7344;50.864;4.362;2022-11-20T12:03:37;10.10;99.90
14517;DHT22;7344;50.864;4.362;2022-11-20T12:06:12;10.10;99.90
14517;DHT22;7344;50.864;4.362;2022-11-20T12:13:57;9.70;99.90
14517;DHT22;7344;50.864;4.362;2022-11-20T12:16:24;9.50;99.90
14517;DHT22;7344;50.864;4.362;2022-11-20T12:18:51;9.40;99.90
14517;DHT22;7344;50.864;4.362;2022-11-20T12:22:23;9.30;99.90
14517;DHT22;7344;50.864;4.362;2022-11-20T12:24:24;9.30;99.90
14517;DHT22;7344;50.864;4.362;2022-11-20T12:29:53;8.90;99.90
14517;DHT22;7344;50.864;4.362;2022-11-20T12:43:54;8.90;99.90
14517;DHT22;7344;50.864;4.362;2022-11-20T12:49:23;8.90;99.90
14517;DHT22;7344;50.864;4.362;2022-11-20T12:55:06;9.10;99.90
14517;DHT22;7344;50.864;4.362;2022-11-20T13:00:20;9.10;99.90
14517;DHT22;7344;50.864;4.362;2022-11-20T13:08:31;9.20;99.90
14517;DHT22;7344;50.864;4.362;2022-11-20T13:17:09;9.20;99.90
14517;DHT22;7344;50.864;4.362;2022-11-20T13:19:37;9.10;99.90
14517;DHT22;7344;50.864;4.362;2022-11-20T13:22:03;9.10;99.90
14517;DHT22;7344;50.864;4.362;2022-11-20T13:24:30;9.10;99.90
14517;DHT22;7344;50.864;4.362;2022-11-20T13:29:35;9.10;99.90
14517;DHT22;7344;50.864;4.362;2022-11-20T13:32:14;9.10;99.90
14517;DHT22;7344;50.864;4.362;2022-11-20T13:34:54;9.10;99.90
14517;DHT22;7344;50.864;4.362;2022-11-20T13:37:33;9.00;99.90
14517;DHT22;7344;50.864;4.362;2022-11-20T13:40:24;9.00;99.90
14517;DHT22;7344;50.864;4.362;2022-11-20T13:45:40;8.80;99.90
14517;DHT22;7344;50.864;4.362;2022-11-20T13:48:23;8.80;99.90
14517;DHT22;7344;50.864;4.362;2022-11-20T13:51:21;8.90;99.90
14517;DHT22;7344;50.864;4.362;2022-11-20T14:02:17;9.00;99.90
14517;DHT22;7344;50.864;4.362;2022-11-20T14:04:46;8.90;99.90
14517;DHT22;7344;50.864;4.362;2022-11-20T14:07:14;8.90;99.90
14517;DHT22;7344;50.864;4.362;2022-11-20T14:09:50;8.90;99.90
14517;DHT22;7344;50.864;4.362;2022-11-20T14:12:20;8.90;99.90
14517;DHT22;7344;50.864;4.362;2022-11-20T14:14:53;8.80;99.90
14517;DHT22;7344;50.864;4.362;2022-11-20T14:17:23;8.80;99.90
14517;DHT22;7344;50.864;4.362;2022-11-20T14:19:54;8.80;99.90
14517;DHT22;7344;50.864;4.362;2022-11-20T14:22:26;8.80;99.90
14517;DHT22;7344;50.864;4.362;2022-11-20T14:27:29;8.90;99.90
14517;DHT22;7344;50.864;4.362;2022-11-20T14:29:54;8.90;99.90
14517;DHT22;7344;50.864;4.362;2022-11-20T14:32:23;9.00;99.90
14517;DHT22;7344;50.864;4.362;2022-11-20T14:34:51;8.90;99.90
14517;DHT22;7344;50.864;4.362;2022-11-20T14:37:21;9.00;99.90
14517;DHT22;7344;50.864;4.362;2022-11-20T14:39:51;9.00;99.90
14517;DHT22;7344;50.864;4.362;2022-11-20T14:42:25;8.90;99.90
14517;DHT22;7344;50.864;4.362;2022-11-20T14:44:54;8.90;99.90
14517;DHT22;7344;50.864;4.362;2022-11-20T14:47:23;8.90;99.90
14517;DHT22;7344;50.864;4.362;2022-11-20T14:49:50;9.00;99.90
14517;DHT22;7344;50.864;4.362;2022-11-20T14:52:22;8.90;99.90
14517;DHT22;7344;50.864;4.362;2022-11-20T14:55:00;8.90;99.90
14517;DHT22;7344;50.864;4.362;2022-11-20T14:57:29;8.90;99.90
14517;DHT22;7344;50.864;4.362;2022-11-20T15:02:43;8.90;99.90
14517;DHT22;7344;50.864;4.362;2022-11-20T15:05:09;8.90;99.90
14517;DHT22;7344;50.864;4.362;2022-11-20T15:07:43;8.90;99.90
14517;DHT22;7344;50.864;4.362;2022-11-20T15:10:47;9.00;99.90
14517;DHT22;7344;50.864;4.362;2022-11-20T15:13:40;9.00;99.90
14517;DHT22;7344;50.864;4.362;2022-11-20T15:16:20;9.10;99.90
14517;DHT22;7344;50.864;4.362;2022-11-20T15:18:46;9.10;99.90
14517;DHT22;7344;50.864;4.362;2022-11-20T15:21:19;9.20;99.90
14517;DHT22;7344;50.864;4.362;2022-11-20T15:23:49;9.20;99.90
14517;DHT22;7344;50.864;4.362;2022-11-20T15:26:26;9.30;99.90
14517;DHT22;7344;50.864;4.362;2022-11-20T15:28:53;9.20;99.90
14517;DHT22;7344;50.864;4.362;2022-11-20T15:31:23;9.20;99.90
14517;DHT22;7344;50.864;4.362;2022-11-20T15:33:49;9.20;99.90
14517;DHT22;7344;50.864;4.362;2022-11-20T15:36:18;9.30;99.90
14517;DHT22;7344;50.864;4.362;2022-11-20T15:38:43;9.20;99.90
14517;DHT22;7344;50.864;4.362;2022-11-20T15:41:09;9.30;99.90
14517;DHT22;7344;50.864;4.362;2022-11-20T15:43:38;9.20;99.90
14517;DHT22;7344;50.864;4.362;2022-11-20T15:46:08;9.20;99.90
14517;DHT22;7344;50.864;4.362;2022-11-20T15:53:40;9.20;99.90
14517;DHT22;7344;50.864;4.362;2022-11-20T15:56:11;9.30;99.90
14517;DHT22;7344;50.864;4.362;2022-11-20T15:58:37;9.30;99.90
14517;DHT22;7344;50.864;4.362;2022-11-20T16:01:02;9.30;99.90
14517;DHT22;7344;50.864;4.362;2022-11-20T16:03:31;9.30;99.90
14517;DHT22;7344;50.864;4.362;2022-11-20T16:05:59;9.40;99.90
14517;DHT22;7344;50.864;4.362;2022-11-20T16:08:25;9.40;99.90
14517;DHT22;7344;50.864;4.362;2022-11-20T16:10:53;9.40;99.90
14517;DHT22;7344;50.864;4.362;2022-11-20T16:13:19;9.50;99.90
14517;DHT22;7344;50.864;4.362;2022-11-20T16:16:14;9.50;99.90
14517;DHT22;7344;50.864;4.362;2022-11-20T16:18:43;9.50;99.90
14517;DHT22;7344;50.864;4.362;2022-11-20T16:21:11;9.50;99.90
14517;DHT22;7344;50.864;4.362;2022-11-20T16:23:38;9.50;99.90
14517;DHT22;7344;50.864;4.362;2022-11-20T16:26:12;9.40;99.90
14517;DHT22;7344;50.864;4.362;2022-11-20T16:28:38;9.40;99.90
14517;DHT22;7344;50.864;4.362;2022-11-20T16:31:18;9.30;99.90
14517;DHT22;7344;50.864;4.362;2022-11-20T16:33:49;9.20;99.90
14517;DHT22;7344;50.864;4.362;2022-11-20T16:36:16;9.20;99.90
14517;DHT22;7344;50.864;4.362;2022-11-20T16:38:42;9.20;99.90
14517;DHT22;7344;50.864;4.362;2022-11-20T16:41:09;9.10;99.90
14517;DHT22;7344;50.864;4.362;2022-11-20T16:43:58;9.20;99.90
14517;DHT22;7344;50.864;4.362;2022-11-20T16:46:26;9.20;99.90
14517;DHT22;7344;50.864;4.362;2022-11-20T16:49:04;9.20;99.90
14517;DHT22;7344;50.864;4.362;2022-11-20T16:51:31;9.30;99.90
14517;DHT22;7344;50.864;4.362;2022-11-20T16:54:02;9.30;99.90
14517;DHT22;7344;50.864;4.362;2022-11-20T16:56:28;9.30;99.90
14517;DHT22;7344;50.864;4.362;2022-11-20T16:58:58;9.30;99.90
14517;DHT22;7344;50.864;4.362;2022-11-20T17:01:25;9.30;99.90
14517;DHT22;7344;50.864;4.362;2022-11-20T17:03:56;9.30;99.90
14517;DHT22;7344;50.864;4.362;2022-11-20T17:06:25;9.20;99.90
14517;DHT22;7344;50.864;4.362;2022-11-20T17:08:57;9.20;99.90
14517;DHT22;7344;50.864;4.362;2022-11-20T17:11:24;9.20;99.90
14517;DHT22;7344;50.864;4.362;2022-11-20T17:13:51;9.20;99.90
14517;DHT22;7344;50.864;4.362;2022-11-20T17:16:18;9.20;99.90
14517;DHT22;7344;50.864;4.362;2022-11-20T17:18:44;9.20;99.90
14517;DHT22;7344;50.864;4.362;2022-11-20T17:21:14;9.20;99.90
14517;DHT22;7344;50.864;4.362;2022-11-20T17:23:41;9.30;99.90
14517;DHT22;7344;50.864;4.362;2022-11-20T17:26:11;9.20;99.90
14517;DHT22;7344;50.864;4.362;2022-11-20T17:28:44;9.30;99.90
14517;DHT22;7344;50.864;4.362;2022-11-20T17:31:13;9.20;99.90
14517;DHT22;7344;50.864;4.362;2022-11-20T17:33:44;9.20;99.90
14517;DHT22;7344;50.864;4.362;2022-11-20T17:36:12;9.30;99.90
14517;DHT22;7344;50.864;4.362;2022-11-20T17:38:37;9.20;99.90
14517;DHT22;7344;50.864;4.362;2022-11-20T17:43:38;8.80;99.90
14517;DHT22;7344;50.864;4.362;2022-11-20T17:46:08;8.70;99.90
14517;DHT22;7344;50.864;4.362;2022-11-20T17:48:34;8.60;99.90
14517;DHT22;7344;50.864;4.362;2022-11-20T17:51:05;8.60;99.90
14517;DHT22;7344;50.864;4.362;2022-11-20T17:53:35;8.70;99.90
14517;DHT22;7344;50.864;4.362;2022-11-20T17:56:04;8.70;99.90
14517;DHT22;7344;50.864;4.362;2022-11-20T17:58:48;8.60;99.90
14517;DHT22;7344;50.864;4.362;2022-11-20T18:01:14;8.40;99.90
14517;DHT22;7344;50.864;4.362;2022-11-20T18:03:42;8.30;99.90
14517;DHT22;7344;50.864;4.362;2022-11-20T18:08:34;8.20;99.90
14517;DHT22;7344;50.864;4.362;2022-11-20T18:10:59;8.30;99.90